METAR AND TAF INFORMATION
METAR FOR OIBP
ADDS - METARS form results

(1349 UTC 13 July 2020)
Data provider http://aviationweather.gov/metar/data/
 
METAR text: OIBP 131300Z 26008KT CAVOK 40/26 Q0992 A2931
Conditions at: OIBP (PERSIAN GULF APT, IR) observed 1300 UTC 13 July 2020
Temperature: 40.0°C (104°F)
Dewpoint: 26.0°C (79°F) [RH = 46%]
Pressure (altimeter): 29.29 inches Hg (992.0 mb)
Winds: from the W (260 degrees) at 9 MPH (8 knots; 4.1 m/s)
Visibility: 6 or more miles (10+ km)
Ceiling: ceiling and visibility are OK
Clouds: unknown
Weather: no significant weather observed at this time

 AIRPORT MAP

 RUNWAY INFORMATION
Runway 13 Runway length 13115 ft Runway width 148 ft
Runway elevation 18 ft Runway displaced threshold 0 ft Runway heading 129
Runway 31 Runway length 13115 ft Runway width 148 ft
Runway elevation 27 ft Runway displaced threshold 0 ft Runway heading 309

 AIRPORT FREQUENCIES
Type AFIS Name INFO Frequency 118.125 MHZ

 AIRPORT NEAR NAVIGATION AIDS
Type NDB Name Persian Gulf Frequency 457 KHZ



Copyright @ Zagros Virtual Airline